createdAt,value
2022-10-02T00:00:07.191Z,99.99
2022-10-02T00:01:07.209Z,99.96
2022-10-02T00:02:08.708Z,99.76
2022-10-02T00:03:07.148Z,99.41
2022-10-02T00:04:08.017Z,99.10
2022-10-02T00:05:11.173Z,99.10
2022-10-02T00:06:07.119Z,99.61
2022-10-02T00:07:07.106Z,99.99
2022-10-02T00:08:07.117Z,99.99
2022-10-02T00:09:07.898Z,99.99
2022-10-02T00:10:07.186Z,99.99
2022-10-02T00:11:07.070Z,99.99
2022-10-02T00:12:07.061Z,99.70
2022-10-02T00:13:13.349Z,99.54
2022-10-02T00:14:07.925Z,99.99
2022-10-02T00:17:34.147Z,99.99
2022-10-02T00:18:34.720Z,99.99
2022-10-02T00:19:34.717Z,99.99
2022-10-02T00:20:34.689Z,99.99
2022-10-02T00:21:35.014Z,99.99
2022-10-02T00:22:34.778Z,99.99
2022-10-02T00:23:36.039Z,99.99
2022-10-02T00:24:34.611Z,99.99
2022-10-02T00:25:35.524Z,99.99
2022-10-02T00:26:35.187Z,99.99
2022-10-02T00:27:34.651Z,99.99
2022-10-02T00:28:36.754Z,99.99
2022-10-02T00:29:36.221Z,99.99
2022-10-02T00:30:34.580Z,99.99
2022-10-02T00:31:34.618Z,99.99
2022-10-02T00:32:34.568Z,99.99
2022-10-02T00:33:34.581Z,99.99
2022-10-02T00:34:35.579Z,99.99
2022-10-02T00:35:36.344Z,99.99
2022-10-02T00:36:38.845Z,99.99
2022-10-02T00:37:35.329Z,99.99
2022-10-02T00:38:34.761Z,99.99
2022-10-02T00:39:34.537Z,99.99
2022-10-02T00:40:34.889Z,99.99
2022-10-02T00:41:35.248Z,99.99
2022-10-02T00:42:35.234Z,99.99
2022-10-02T00:43:35.393Z,99.99
2022-10-02T00:44:34.912Z,99.99
2022-10-02T00:45:34.523Z,99.99
2022-10-02T00:46:36.526Z,99.99
2022-10-02T00:47:34.395Z,99.99
2022-10-02T00:48:34.447Z,99.99
2022-10-02T00:49:34.443Z,99.99
2022-10-02T00:50:34.407Z,99.99
2022-10-02T00:51:34.355Z,99.99
2022-10-02T00:52:34.473Z,99.99
2022-10-02T00:53:35.177Z,99.99
2022-10-02T00:55:53.670Z,99.99
2022-10-02T01:01:50.114Z,99.99
2022-10-02T01:02:51.017Z,99.99
2022-10-02T01:03:51.017Z,99.99
2022-10-02T01:04:52.390Z,99.99
2022-10-02T01:05:52.381Z,99.99
2022-10-02T01:06:51.926Z,99.99
2022-10-02T01:07:50.969Z,99.99
2022-10-02T01:08:50.984Z,99.99
2022-10-02T01:09:51.236Z,99.99
2022-10-02T01:10:50.925Z,99.99
2022-10-02T01:11:51.207Z,99.99
2022-10-02T01:12:51.273Z,99.99
2022-10-02T01:13:50.951Z,99.99
2022-10-02T01:14:51.202Z,99.99
2022-10-02T01:15:50.876Z,99.99
2022-10-02T01:16:50.897Z,99.99
2022-10-02T01:17:50.859Z,99.99
2022-10-02T01:18:52.391Z,99.99
2022-10-02T01:19:52.711Z,99.99
2022-10-02T01:20:50.806Z,99.99
2022-10-02T01:21:51.748Z,99.99
2022-10-02T01:22:50.787Z,99.99
2022-10-02T01:23:50.705Z,99.99
2022-10-02T01:24:50.793Z,99.99
2022-10-02T01:25:50.673Z,99.99
2022-10-02T01:26:50.666Z,99.99
2022-10-02T01:27:50.681Z,99.99
2022-10-02T01:28:50.642Z,99.99
2022-10-02T01:29:50.651Z,99.99
2022-10-02T01:30:50.692Z,99.99
2022-10-02T01:31:50.688Z,99.99
2022-10-02T01:32:50.601Z,99.99
2022-10-02T01:33:50.574Z,99.99
2022-10-02T01:34:50.563Z,99.99
2022-10-02T01:35:50.584Z,99.99
2022-10-02T01:36:50.599Z,99.99
2022-10-02T01:37:50.552Z,99.99
2022-10-02T01:38:50.534Z,99.99
2022-10-02T01:39:50.530Z,99.99
2022-10-02T01:40:50.604Z,99.99
2022-10-02T01:41:50.618Z,99.99
2022-10-02T01:42:50.573Z,99.99
2022-10-02T01:43:50.659Z,99.99
2022-10-02T01:44:50.608Z,99.99
2022-10-02T01:45:50.575Z,99.99
2022-10-02T01:46:50.573Z,99.99
2022-10-02T01:47:50.555Z,99.99
2022-10-02T01:48:50.672Z,99.99
2022-10-02T01:49:50.500Z,99.99
2022-10-02T01:50:50.518Z,99.99
2022-10-02T01:51:50.412Z,99.99
2022-10-02T01:52:50.446Z,99.99
2022-10-02T01:53:50.584Z,99.99
2022-10-02T01:54:50.533Z,99.99
2022-10-02T01:55:51.454Z,99.99
2022-10-02T01:56:50.345Z,99.99
2022-10-02T01:57:50.348Z,99.99
2022-10-02T01:58:50.381Z,99.99
2022-10-02T01:59:50.420Z,99.99
2022-10-02T02:00:50.584Z,99.99
2022-10-02T02:01:50.355Z,99.99
2022-10-02T02:02:50.365Z,99.99
2022-10-02T02:03:53.271Z,99.99
2022-10-02T02:04:50.374Z,99.99
2022-10-02T02:05:50.747Z,99.99
2022-10-02T02:06:50.551Z,99.99
2022-10-02T02:07:50.943Z,99.99
2022-10-02T02:08:50.298Z,99.99
2022-10-02T02:09:50.221Z,99.99
2022-10-02T02:10:50.786Z,99.99
2022-10-02T02:11:50.157Z,99.99
2022-10-02T02:12:50.308Z,99.99
2022-10-02T02:13:50.965Z,99.99
2022-10-02T02:14:50.295Z,99.99
2022-10-02T02:15:50.284Z,99.99
2022-10-02T02:16:50.334Z,99.99
2022-10-02T02:17:50.566Z,99.99
2022-10-02T02:18:50.678Z,99.99
2022-10-02T02:19:50.224Z,99.99
2022-10-02T02:20:50.164Z,99.99
2022-10-02T02:21:50.164Z,99.99
2022-10-02T02:22:50.260Z,99.99
2022-10-02T02:23:50.614Z,99.99
2022-10-02T02:24:50.582Z,99.99
2022-10-02T02:25:50.405Z,99.99
2022-10-02T02:26:50.333Z,99.99
2022-10-02T02:27:50.543Z,99.99
2022-10-02T02:28:50.353Z,99.99
2022-10-02T02:29:50.101Z,99.99
2022-10-02T02:30:50.372Z,99.99
2022-10-02T02:31:50.389Z,99.99
2022-10-02T02:32:50.086Z,99.99
2022-10-02T02:33:52.046Z,99.99
2022-10-02T02:34:50.279Z,99.99
2022-10-02T02:35:50.299Z,99.99
2022-10-02T02:36:50.212Z,99.99
2022-10-02T02:37:50.006Z,99.99
2022-10-02T02:38:50.126Z,99.99
2022-10-02T02:39:50.087Z,99.99
2022-10-02T02:40:50.149Z,99.99
2022-10-02T02:41:49.886Z,99.99
2022-10-02T02:42:50.300Z,99.99
2022-10-02T02:43:49.882Z,99.99
2022-10-02T02:44:49.911Z,99.99
2022-10-02T02:45:50.504Z,99.99
2022-10-02T02:46:49.890Z,99.99
2022-10-02T02:47:49.835Z,99.99
2022-10-02T02:48:49.908Z,99.99
2022-10-02T02:49:49.746Z,99.99
2022-10-02T02:50:49.714Z,99.99
2022-10-02T02:51:49.899Z,99.99
2022-10-02T02:52:49.792Z,99.99
2022-10-02T02:53:49.806Z,99.99
2022-10-02T02:54:49.822Z,99.99
2022-10-02T02:55:49.748Z,99.99
2022-10-02T02:56:49.689Z,99.99
2022-10-02T02:57:49.773Z,99.99
2022-10-02T02:58:49.763Z,99.99
2022-10-02T02:59:49.666Z,99.99
2022-10-02T03:00:49.931Z,99.99
2022-10-02T03:01:49.779Z,99.99
2022-10-02T03:02:49.666Z,99.99
2022-10-02T03:03:49.693Z,99.99
2022-10-02T03:04:49.722Z,99.99
2022-10-02T03:05:49.577Z,99.99
2022-10-02T03:06:49.584Z,99.99
2022-10-02T03:07:49.613Z,99.99
2022-10-02T03:08:49.687Z,99.99
2022-10-02T03:09:49.506Z,99.99
2022-10-02T03:10:49.579Z,99.99
2022-10-02T03:11:49.475Z,99.99
2022-10-02T03:12:49.514Z,99.99
2022-10-02T03:13:49.463Z,99.99
2022-10-02T03:14:49.443Z,99.99
2022-10-02T03:15:49.495Z,99.99
2022-10-02T03:16:49.433Z,99.99
2022-10-02T03:17:49.404Z,99.99
2022-10-02T03:18:49.470Z,99.99
2022-10-02T03:19:49.388Z,99.99
2022-10-02T03:20:49.394Z,99.99
2022-10-02T03:21:49.388Z,99.99
2022-10-02T03:22:49.389Z,99.99
2022-10-02T03:23:49.352Z,99.99
2022-10-02T03:24:49.879Z,99.99
2022-10-02T03:25:49.538Z,99.99
2022-10-02T03:26:49.808Z,99.99
2022-10-02T03:27:49.386Z,99.99
2022-10-02T03:28:57.188Z,99.99
2022-10-02T03:29:50.166Z,99.99
2022-10-02T03:30:49.406Z,99.99
2022-10-02T03:31:49.308Z,99.99
2022-10-02T03:32:49.249Z,99.99
2022-10-02T03:33:49.263Z,99.99
2022-10-02T03:34:49.258Z,99.99
2022-10-02T03:35:49.210Z,99.99
2022-10-02T03:36:49.820Z,99.99
2022-10-02T03:37:49.191Z,99.99
2022-10-02T03:39:00.699Z,99.99
2022-10-02T03:39:49.816Z,99.99
2022-10-02T03:40:49.171Z,99.99
2022-10-02T03:41:49.855Z,99.99
2022-10-02T03:42:49.177Z,99.99
2022-10-02T03:43:49.124Z,99.99
2022-10-02T03:44:49.126Z,99.99
2022-10-02T03:45:51.739Z,99.99
2022-10-02T03:46:49.167Z,99.99
2022-10-02T03:47:49.076Z,99.99
2022-10-02T03:48:49.111Z,99.99
2022-10-02T03:49:49.054Z,99.99
2022-10-02T03:50:49.055Z,99.99
2022-10-02T03:51:49.036Z,99.99
2022-10-02T03:52:49.098Z,99.99
2022-10-02T03:53:48.998Z,99.99
2022-10-02T03:54:49.051Z,99.99
2022-10-02T03:55:49.670Z,99.99
2022-10-02T03:56:49.843Z,99.99
2022-10-02T03:57:48.979Z,99.99
2022-10-02T03:58:48.949Z,99.99
2022-10-02T03:59:48.954Z,99.99
2022-10-02T04:00:49.227Z,99.99
2022-10-02T04:01:49.396Z,99.99
2022-10-02T04:02:48.916Z,99.99
2022-10-02T04:03:48.969Z,99.99
2022-10-02T04:04:48.886Z,99.99
2022-10-02T04:05:48.885Z,99.99
2022-10-02T04:06:48.904Z,99.99
2022-10-02T04:07:52.600Z,99.99
2022-10-02T04:08:48.956Z,99.99
2022-10-02T04:09:48.865Z,99.99
2022-10-02T04:10:48.824Z,99.99
2022-10-02T04:11:48.804Z,99.99
2022-10-02T04:12:48.842Z,99.99
2022-10-02T04:13:48.774Z,99.99
2022-10-02T04:14:48.776Z,99.99
2022-10-02T04:15:49.931Z,99.99
2022-10-02T04:16:48.829Z,99.99
2022-10-02T04:17:49.134Z,99.99
2022-10-02T04:18:49.012Z,99.99
2022-10-02T04:19:48.751Z,99.99
2022-10-02T04:20:49.162Z,99.99
2022-10-02T04:21:48.965Z,99.99
2022-10-02T04:22:49.123Z,99.99
2022-10-02T04:23:48.686Z,99.99
2022-10-02T04:24:49.183Z,99.99
2022-10-02T04:25:49.133Z,99.99
2022-10-02T04:26:49.136Z,99.99
2022-10-02T04:27:49.031Z,99.99
2022-10-02T04:28:49.006Z,99.99
2022-10-02T04:29:49.039Z,99.99
2022-10-02T04:30:49.115Z,99.99
2022-10-02T04:31:48.904Z,99.99
2022-10-02T04:32:48.897Z,99.99
2022-10-02T04:33:49.046Z,99.99
2022-10-02T04:34:49.042Z,99.99
2022-10-02T04:35:49.828Z,99.99
2022-10-02T04:36:48.983Z,99.99
2022-10-02T04:37:50.682Z,99.99
2022-10-02T04:38:48.899Z,99.99
2022-10-02T04:39:48.928Z,99.99
2022-10-02T04:40:48.780Z,99.99
2022-10-02T04:41:48.821Z,99.99
2022-10-02T04:42:48.910Z,99.99
2022-10-02T04:43:48.962Z,99.99
2022-10-02T04:44:48.952Z,99.99
2022-10-02T04:45:49.207Z,99.99
2022-10-02T04:46:48.703Z,99.99
2022-10-02T04:47:48.655Z,99.99
2022-10-02T04:48:48.971Z,99.99
2022-10-02T04:49:48.810Z,99.99
2022-10-02T04:50:48.803Z,99.99
2022-10-02T04:51:48.836Z,99.99
2022-10-02T04:52:48.799Z,99.99
2022-10-02T04:53:48.769Z,99.99
2022-10-02T04:54:48.823Z,99.99
2022-10-02T04:55:48.713Z,99.99
2022-10-02T04:56:48.729Z,99.99
2022-10-02T04:57:48.832Z,99.99
2022-10-02T04:58:48.369Z,99.99
2022-10-02T04:59:48.761Z,99.99
2022-10-02T05:00:49.044Z,99.99
2022-10-02T05:01:48.399Z,99.99
2022-10-02T05:02:48.579Z,99.99
2022-10-02T05:03:48.373Z,99.99
2022-10-02T05:04:48.780Z,99.99
2022-10-02T05:05:48.670Z,99.99
2022-10-02T05:06:48.695Z,99.99
2022-10-02T05:07:48.630Z,99.99
2022-10-02T05:08:48.635Z,99.99
2022-10-02T05:09:48.484Z,99.99
2022-10-02T05:10:48.553Z,99.99
2022-10-02T05:11:48.674Z,99.99
2022-10-02T05:12:48.568Z,99.99
2022-10-02T05:13:48.582Z,99.99
2022-10-02T05:14:48.561Z,99.99
2022-10-02T05:15:48.554Z,99.99
2022-10-02T05:16:48.501Z,99.99
2022-10-02T05:17:48.474Z,99.99
2022-10-02T05:18:48.499Z,99.99
2022-10-02T05:19:48.547Z,99.99
2022-10-02T05:20:48.503Z,99.99
2022-10-02T05:21:48.213Z,99.99
2022-10-02T05:22:48.448Z,99.99
2022-10-02T05:23:48.478Z,99.99
2022-10-02T05:24:48.476Z,99.99
2022-10-02T05:25:48.279Z,99.99
2022-10-02T05:26:48.384Z,99.99
2022-10-02T05:27:48.521Z,99.99
2022-10-02T05:28:50.136Z,99.99
2022-10-02T05:29:54.205Z,99.99
2022-10-02T05:30:54.907Z,99.99
2022-10-02T05:31:54.952Z,99.99
2022-10-02T05:32:48.353Z,99.99
2022-10-02T05:33:48.669Z,99.99
2022-10-02T05:34:48.272Z,99.99
2022-10-02T05:35:48.515Z,99.99
2022-10-02T05:36:48.361Z,99.99
2022-10-02T05:37:48.067Z,99.99
2022-10-02T05:38:48.157Z,99.99
2022-10-02T05:39:47.869Z,99.99
2022-10-02T05:40:48.318Z,99.99
2022-10-02T05:41:48.832Z,99.99
2022-10-02T05:42:48.782Z,99.99
2022-10-02T05:43:48.189Z,99.99
2022-10-02T05:44:48.123Z,99.99
2022-10-02T05:45:48.317Z,99.99
2022-10-02T05:46:48.230Z,99.99
2022-10-02T05:47:48.148Z,99.99
2022-10-02T05:48:48.145Z,99.99
2022-10-02T05:49:48.132Z,99.99
2022-10-02T05:50:48.147Z,99.99
2022-10-02T05:51:47.997Z,99.99
2022-10-02T05:52:48.001Z,99.99
2022-10-02T05:53:48.108Z,99.99
2022-10-02T05:54:47.933Z,99.99
2022-10-02T05:55:47.966Z,99.99
2022-10-02T05:56:47.926Z,99.99
2022-10-02T05:57:48.155Z,99.99
2022-10-02T05:58:48.142Z,99.99
2022-10-02T05:59:48.108Z,99.99
2022-10-02T06:00:47.896Z,99.99
2022-10-02T06:01:47.999Z,99.99
2022-10-02T06:02:47.993Z,99.99
2022-10-02T06:03:47.815Z,99.99
2022-10-02T06:04:47.970Z,99.99
2022-10-02T06:05:47.988Z,99.99
2022-10-02T06:06:47.912Z,99.99
2022-10-02T06:07:47.950Z,99.99
2022-10-02T06:08:47.881Z,99.99
2022-10-02T06:09:47.867Z,99.99
2022-10-02T06:10:47.891Z,99.99
2022-10-02T06:11:47.845Z,99.99
2022-10-02T06:12:48.991Z,99.99
2022-10-02T06:13:47.816Z,99.99
2022-10-02T06:14:50.702Z,99.99
2022-10-02T06:15:47.848Z,99.99
2022-10-02T06:16:47.965Z,99.99
2022-10-02T06:17:47.843Z,99.99
2022-10-02T06:18:47.760Z,99.99
2022-10-02T06:19:47.867Z,99.99
2022-10-02T06:20:47.779Z,99.99
2022-10-02T06:21:47.943Z,99.99
2022-10-02T06:22:47.333Z,99.99
2022-10-02T06:23:47.362Z,99.99
2022-10-02T06:24:47.336Z,99.99
2022-10-02T06:25:47.358Z,99.99
2022-10-02T06:26:47.303Z,99.99
2022-10-02T06:27:47.387Z,99.99
2022-10-02T06:28:47.296Z,99.99
2022-10-02T06:29:47.293Z,99.99
2022-10-02T06:30:47.263Z,99.99
2022-10-02T06:31:47.378Z,99.99
2022-10-02T06:32:47.265Z,99.99
2022-10-02T06:33:47.212Z,99.99
2022-10-02T06:34:48.263Z,99.99
2022-10-02T06:35:47.297Z,99.99
2022-10-02T06:36:47.186Z,99.99
2022-10-02T06:37:47.178Z,99.99
2022-10-02T06:38:47.182Z,99.99
2022-10-02T06:39:47.265Z,99.99
2022-10-02T06:40:47.140Z,99.99
2022-10-02T06:41:47.181Z,99.99
2022-10-02T06:42:47.145Z,99.99
2022-10-02T06:43:47.679Z,99.99
2022-10-02T06:44:47.155Z,99.99
2022-10-02T06:45:47.148Z,99.99
2022-10-02T06:46:51.166Z,99.99
2022-10-02T06:47:47.115Z,99.99
2022-10-02T06:48:47.048Z,99.99
2022-10-02T06:49:47.048Z,99.99
2022-10-02T06:50:47.048Z,99.99
2022-10-02T06:51:47.021Z,99.99
2022-10-02T06:52:47.045Z,99.99
2022-10-02T06:53:47.050Z,99.99
2022-10-02T06:54:46.981Z,99.99
2022-10-02T06:55:46.993Z,99.99
2022-10-02T06:56:46.994Z,99.99
2022-10-02T06:57:46.955Z,99.99
2022-10-02T06:58:46.963Z,99.99
2022-10-02T06:59:47.009Z,99.99
2022-10-02T07:00:47.058Z,99.99
2022-10-02T07:01:47.054Z,99.99
2022-10-02T07:02:46.891Z,99.99
2022-10-02T07:03:46.892Z,99.99
2022-10-02T07:04:46.854Z,99.99
2022-10-02T07:05:46.930Z,99.99
2022-10-02T07:06:46.844Z,99.99
2022-10-02T07:07:46.861Z,99.99
2022-10-02T07:08:46.833Z,99.92
2022-10-02T07:09:46.817Z,99.66
2022-10-02T07:10:46.794Z,99.26
2022-10-02T07:11:46.874Z,98.95
2022-10-02T07:12:47.755Z,98.65
2022-10-02T07:13:46.813Z,98.75
2022-10-02T07:14:46.780Z,98.85
2022-10-02T07:15:46.751Z,98.95
2022-10-02T07:16:46.769Z,99.00
2022-10-02T07:17:46.818Z,99.00
2022-10-02T07:18:46.728Z,99.00
2022-10-02T07:19:46.688Z,98.90
2022-10-02T07:20:46.683Z,99.00
2022-10-02T07:21:46.698Z,99.10
2022-10-02T07:22:46.728Z,98.95
2022-10-02T07:23:46.763Z,98.75
2022-10-02T07:24:46.675Z,98.44
2022-10-02T07:25:46.662Z,98.44
2022-10-02T07:26:46.738Z,98.39
2022-10-02T07:27:46.628Z,98.39
2022-10-02T07:28:46.603Z,98.28
2022-10-02T07:29:46.647Z,98.18
2022-10-02T07:30:46.626Z,98.18
2022-10-02T07:31:48.436Z,98.08
2022-10-02T07:32:46.620Z,97.98
2022-10-02T07:33:46.615Z,97.98
2022-10-02T07:34:47.509Z,97.98
2022-10-02T07:35:46.560Z,98.08
2022-10-02T07:36:46.549Z,97.88
2022-10-02T07:37:46.535Z,97.98
2022-10-02T07:38:46.770Z,98.08
2022-10-02T07:39:47.262Z,97.88
2022-10-02T07:40:46.459Z,97.98
2022-10-02T07:41:46.872Z,97.98
2022-10-02T07:42:46.434Z,97.78
2022-10-02T07:43:46.436Z,97.67
2022-10-02T07:44:46.432Z,97.88
2022-10-02T07:45:46.452Z,97.73
2022-10-02T07:46:46.415Z,97.73
2022-10-02T07:47:46.475Z,97.63
2022-10-02T07:48:46.518Z,97.63
2022-10-02T07:49:46.444Z,97.83
2022-10-02T07:50:46.390Z,97.89
2022-10-02T07:51:46.349Z,97.69
2022-10-02T07:52:46.340Z,97.23
2022-10-02T07:53:46.446Z,96.88
2022-10-02T07:54:46.337Z,96.68
2022-10-02T07:55:46.340Z,96.12
2022-10-02T07:56:46.300Z,95.72
2022-10-02T07:57:46.295Z,95.51
2022-10-02T07:58:46.284Z,95.57
2022-10-02T07:59:46.306Z,96.28
2022-10-02T08:00:46.282Z,96.69
2022-10-02T08:01:46.284Z,96.12
2022-10-02T08:02:46.322Z,96.23
2022-10-02T08:03:46.193Z,96.37
2022-10-02T08:04:46.188Z,95.76
2022-10-02T08:05:46.899Z,96.01
2022-10-02T08:06:46.218Z,96.31
2022-10-02T08:07:46.162Z,96.01
2022-10-02T08:08:46.361Z,96.56
2022-10-02T08:09:46.166Z,96.67
2022-10-02T08:10:46.185Z,97.07
2022-10-02T08:11:49.513Z,96.87
2022-10-02T08:12:46.153Z,96.26
2022-10-02T08:13:46.909Z,96.15
2022-10-02T08:14:46.097Z,95.75
2022-10-02T08:15:47.131Z,95.04
2022-10-02T08:16:46.095Z,94.43
2022-10-02T08:17:46.872Z,94.63
2022-10-02T08:18:46.074Z,94.53
2022-10-02T08:19:46.028Z,94.48
2022-10-02T08:20:46.031Z,94.79
2022-10-02T08:21:46.048Z,94.38
2022-10-02T08:22:46.025Z,94.48
2022-10-02T08:23:46.123Z,94.08
2022-10-02T08:24:47.002Z,93.83
2022-10-02T08:25:46.003Z,93.43
2022-10-02T08:26:45.944Z,92.91
2022-10-02T08:27:46.064Z,92.82
2022-10-02T08:28:45.938Z,92.82
2022-10-02T08:29:46.027Z,93.38
2022-10-02T08:30:45.891Z,93.89
2022-10-02T08:31:46.031Z,94.29
2022-10-02T08:32:45.918Z,93.89
2022-10-02T08:33:45.956Z,93.18
2022-10-02T08:34:45.939Z,92.77
2022-10-02T08:35:46.001Z,92.16
2022-10-02T08:36:45.863Z,91.20
2022-10-02T08:37:45.950Z,90.29
2022-10-02T08:38:46.477Z,90.29
2022-10-02T08:39:46.020Z,90.09
2022-10-02T08:40:46.050Z,89.78
2022-10-02T08:41:45.989Z,89.37
2022-10-02T08:42:45.971Z,89.64
2022-10-02T08:43:46.169Z,88.93
2022-10-02T08:44:45.969Z,89.74
2022-10-02T08:45:45.895Z,89.39
2022-10-02T08:46:45.765Z,89.59
2022-10-02T08:47:45.756Z,89.96
2022-10-02T08:48:45.844Z,89.76
2022-10-02T08:49:45.804Z,89.04
2022-10-02T08:50:45.686Z,88.34
2022-10-02T08:51:45.696Z,87.77
2022-10-02T08:52:45.737Z,88.07
2022-10-02T08:53:46.389Z,89.09
2022-10-02T08:54:45.627Z,90.25
2022-10-02T08:55:45.722Z,89.94
2022-10-02T08:56:45.657Z,89.64
2022-10-02T08:57:45.722Z,89.74
2022-10-02T08:58:45.659Z,89.84
2022-10-02T08:59:45.873Z,90.66
2022-10-02T09:00:45.612Z,90.66
2022-10-02T09:01:45.601Z,90.14
2022-10-02T09:02:45.642Z,89.90
2022-10-02T09:03:45.571Z,90.00
2022-10-02T09:04:45.593Z,90.51
2022-10-02T09:05:46.044Z,90.31
2022-10-02T09:06:45.511Z,90.26
2022-10-02T09:07:45.577Z,89.55
2022-10-02T09:08:45.944Z,87.93
2022-10-02T09:09:45.526Z,87.38
2022-10-02T09:10:45.542Z,87.69
2022-10-02T09:11:45.904Z,85.76
2022-10-02T09:12:45.614Z,85.36
2022-10-02T09:13:45.944Z,85.36
2022-10-02T09:14:45.771Z,85.36
2022-10-02T09:15:45.785Z,86.37
2022-10-02T09:16:45.926Z,85.39
2022-10-02T09:17:45.768Z,86.41
2022-10-02T09:18:45.869Z,86.51
2022-10-02T09:19:45.536Z,87.26
2022-10-02T09:20:45.644Z,88.18
2022-10-02T09:21:46.234Z,88.07
2022-10-02T09:22:46.036Z,87.46
2022-10-02T09:23:46.540Z,86.45
2022-10-02T09:24:45.740Z,85.94
2022-10-02T09:25:46.198Z,85.44
2022-10-02T09:26:45.301Z,84.42
2022-10-02T09:27:45.328Z,84.78
2022-10-02T09:28:45.309Z,85.70
2022-10-02T09:29:45.355Z,84.04
2022-10-02T09:30:45.236Z,84.04
2022-10-02T09:31:45.451Z,84.34
2022-10-02T09:32:45.207Z,83.73
2022-10-02T09:33:45.215Z,82.52
2022-10-02T09:34:45.270Z,83.18
2022-10-02T09:35:45.186Z,83.29
2022-10-02T09:36:45.225Z,83.90
2022-10-02T09:37:45.165Z,85.52
2022-10-02T09:38:45.164Z,85.11
2022-10-02T09:39:45.147Z,85.82
2022-10-02T09:40:45.249Z,85.62
2022-10-02T09:41:45.891Z,84.70
2022-10-02T09:42:46.232Z,85.01
2022-10-02T09:43:45.356Z,83.49
2022-10-02T09:44:46.333Z,84.00
2022-10-02T09:45:45.141Z,83.45
2022-10-02T09:46:45.265Z,83.45
2022-10-02T09:47:45.058Z,83.96
2022-10-02T09:48:45.040Z,83.76
2022-10-02T09:49:45.070Z,84.06
2022-10-02T09:50:45.228Z,83.45
2022-10-02T09:51:45.173Z,83.76
2022-10-02T09:52:45.226Z,83.65
2022-10-02T09:53:45.193Z,82.84
2022-10-02T09:54:45.194Z,83.04
2022-10-02T09:55:45.150Z,83.76
2022-10-02T09:56:45.151Z,82.75
2022-10-02T09:57:45.211Z,82.64
2022-10-02T09:58:45.236Z,81.63
2022-10-02T09:59:45.176Z,80.82
2022-10-02T10:00:45.312Z,80.82
2022-10-02T10:01:45.261Z,81.23
2022-10-02T10:02:45.352Z,81.43
2022-10-02T10:03:45.630Z,80.92
2022-10-02T10:05:04.533Z,81.12
2022-10-02T10:05:45.210Z,81.32
2022-10-02T10:06:45.302Z,81.02
2022-10-02T10:07:45.165Z,81.23
2022-10-02T10:08:45.164Z,80.82
2022-10-02T10:09:45.085Z,79.60
2022-10-02T10:10:45.339Z,80.41
2022-10-02T10:11:45.227Z,80.62
2022-10-02T10:12:45.104Z,80.52
2022-10-02T10:13:45.015Z,79.30
2022-10-02T10:14:45.089Z,78.79
2022-10-02T10:15:45.023Z,78.89
2022-10-02T10:16:45.081Z,78.79
2022-10-02T10:17:44.860Z,78.69
2022-10-02T10:18:44.765Z,79.50
2022-10-02T10:19:44.828Z,79.80
2022-10-02T10:20:45.124Z,79.10
2022-10-02T10:21:44.961Z,79.91
2022-10-02T10:22:45.512Z,80.11
2022-10-02T10:23:44.786Z,78.79
2022-10-02T10:24:44.790Z,79.67
2022-10-02T10:25:44.970Z,79.97
2022-10-02T10:26:44.623Z,78.55
2022-10-02T10:27:44.726Z,79.16
2022-10-02T10:28:44.664Z,79.36
2022-10-02T10:29:44.926Z,79.67
2022-10-02T10:30:45.119Z,80.18
2022-10-02T10:31:44.809Z,80.98
2022-10-02T10:32:44.943Z,80.13
2022-10-02T10:33:45.029Z,80.13
2022-10-02T10:34:45.952Z,78.62
2022-10-02T10:35:44.811Z,78.38
2022-10-02T10:36:46.814Z,77.67
2022-10-02T10:37:44.781Z,78.08
2022-10-02T10:38:44.917Z,78.24
2022-10-02T10:39:44.783Z,78.14
2022-10-02T10:40:45.849Z,78.20
2022-10-02T10:41:44.865Z,77.60
2022-10-02T10:43:05.962Z,78.10
2022-10-02T10:43:44.470Z,77.76
2022-10-02T10:44:44.724Z,76.75
2022-10-02T10:45:45.615Z,76.75
2022-10-02T10:46:44.808Z,76.55
2022-10-02T10:47:44.636Z,77.36
2022-10-02T10:48:49.226Z,76.69
2022-10-02T10:49:44.640Z,78.30
2022-10-02T10:50:44.632Z,78.77
2022-10-02T10:51:45.137Z,78.63
2022-10-02T10:52:44.793Z,77.56
2022-10-02T10:53:44.426Z,78.61
2022-10-02T10:54:45.372Z,78.41
2022-10-02T10:55:44.839Z,78.85
2022-10-02T10:56:44.656Z,79.49
2022-10-02T10:57:44.460Z,79.19
2022-10-02T10:58:44.721Z,79.53
2022-10-02T10:59:44.859Z,80.13
2022-10-02T11:00:44.457Z,79.57
2022-10-02T11:01:44.438Z,79.26
2022-10-02T11:02:44.488Z,79.87
2022-10-02T11:03:44.190Z,79.80
2022-10-02T11:04:44.343Z,80.72
2022-10-02T11:05:44.370Z,80.31
2022-10-02T11:06:46.239Z,80.41
2022-10-02T11:07:44.264Z,80.41
2022-10-02T11:08:44.194Z,80.01
2022-10-02T11:09:44.355Z,80.11
2022-10-02T11:10:44.166Z,80.92
2022-10-02T11:11:44.942Z,80.62
2022-10-02T11:12:44.133Z,80.41
2022-10-02T11:13:44.243Z,80.68
2022-10-02T11:14:44.071Z,81.43
2022-10-02T11:15:44.246Z,81.23
2022-10-02T11:16:44.442Z,82.03
2022-10-02T11:17:44.185Z,82.64
2022-10-02T11:18:44.094Z,81.52
2022-10-02T11:19:44.431Z,81.83
2022-10-02T11:20:44.019Z,82.34
2022-10-02T11:21:44.076Z,81.99
2022-10-02T11:22:44.292Z,81.85
2022-10-02T11:23:44.101Z,80.54
2022-10-02T11:24:44.013Z,80.94
2022-10-02T11:25:44.003Z,81.15
2022-10-02T11:26:44.023Z,81.15
2022-10-02T11:27:44.024Z,82.16
2022-10-02T11:28:44.010Z,82.12
2022-10-02T11:29:44.412Z,82.12
2022-10-02T11:30:45.133Z,82.56
2022-10-02T11:31:44.056Z,83.17
2022-10-02T11:32:43.975Z,84.02
2022-10-02T11:33:43.880Z,83.61
2022-10-02T11:34:43.925Z,84.12
2022-10-02T11:35:44.037Z,82.50
2022-10-02T11:36:43.945Z,81.29
2022-10-02T11:37:43.956Z,80.38
2022-10-02T11:38:44.044Z,80.58
2022-10-02T11:39:43.935Z,79.93
2022-10-02T11:40:44.030Z,79.83
2022-10-02T11:41:43.975Z,78.99
2022-10-02T11:42:43.771Z,78.17
2022-10-02T11:43:44.265Z,78.04
2022-10-02T11:44:43.816Z,78.64
2022-10-02T11:45:43.999Z,79.62
2022-10-02T11:46:43.954Z,78.71
2022-10-02T11:47:43.885Z,76.95
2022-10-02T11:48:43.769Z,77.06
2022-10-02T11:49:43.946Z,77.15
2022-10-02T11:50:43.991Z,76.75
2022-10-02T11:51:43.715Z,75.64
2022-10-02T11:52:48.161Z,76.45
2022-10-02T11:53:43.917Z,75.13
2022-10-02T11:54:43.889Z,75.51
2022-10-02T11:55:43.733Z,74.69
2022-10-02T11:56:43.925Z,74.09
2022-10-02T11:57:43.773Z,73.38
2022-10-02T11:58:43.973Z,75.20
2022-10-02T11:59:43.756Z,74.69
2022-10-02T12:00:43.810Z,75.00
2022-10-02T12:01:43.976Z,74.90
2022-10-02T12:02:44.186Z,75.37
2022-10-02T12:03:44.585Z,75.16
2022-10-02T12:04:43.877Z,75.13
2022-10-02T12:05:43.732Z,76.15
2022-10-02T12:06:43.755Z,75.95
2022-10-02T12:07:43.698Z,75.13
2022-10-02T12:08:43.722Z,75.00
2022-10-02T12:09:43.717Z,73.55
2022-10-02T12:10:43.537Z,73.96
2022-10-02T12:11:43.562Z,73.96
2022-10-02T12:12:43.440Z,74.69
2022-10-02T12:13:43.434Z,75.13
2022-10-02T12:14:43.797Z,75.24
2022-10-02T12:15:43.420Z,75.84
2022-10-02T12:16:43.481Z,76.45
2022-10-02T12:17:43.363Z,76.45
2022-10-02T12:18:43.941Z,75.74
2022-10-02T12:19:43.430Z,73.82
2022-10-02T12:20:43.334Z,74.63
2022-10-02T12:21:43.344Z,75.24
2022-10-02T12:22:43.381Z,75.54
2022-10-02T12:23:43.356Z,74.93
2022-10-02T12:24:43.309Z,75.60
2022-10-02T12:25:43.903Z,73.45
2022-10-02T12:26:43.316Z,71.50
2022-10-02T12:27:43.263Z,69.62
2022-10-02T12:28:43.407Z,68.65
2022-10-02T12:29:49.237Z,67.68
2022-10-02T12:30:43.219Z,65.88
2022-10-02T12:31:43.305Z,64.74
2022-10-02T12:32:43.200Z,64.75
2022-10-02T12:33:43.189Z,61.58
2022-10-02T12:34:43.214Z,61.05
2022-10-02T12:35:43.241Z,61.25
2022-10-02T12:36:43.180Z,61.35
2022-10-02T12:37:43.165Z,60.89
2022-10-02T12:38:43.122Z,61.72
2022-10-02T12:39:43.160Z,60.39
2022-10-02T12:40:43.128Z,59.27
2022-10-02T12:41:43.075Z,58.94
2022-10-02T12:42:43.081Z,61.18
2022-10-02T12:43:43.057Z,64.11
2022-10-02T12:44:43.051Z,62.21
2022-10-02T12:45:43.067Z,61.59
2022-10-02T12:46:43.071Z,58.47
2022-10-02T12:47:43.008Z,58.84
2022-10-02T12:48:43.191Z,57.61
2022-10-02T12:49:43.007Z,57.74
2022-10-02T12:50:43.285Z,61.34
2022-10-02T12:51:42.964Z,63.70
2022-10-02T12:52:43.004Z,63.21
2022-10-02T12:53:42.971Z,63.51
2022-10-02T12:54:42.999Z,61.57
2022-10-02T12:55:42.973Z,59.89
2022-10-02T12:56:42.916Z,60.35
2022-10-02T12:57:42.908Z,62.45
2022-10-02T12:58:42.994Z,61.24
2022-10-02T12:59:42.983Z,58.68
2022-10-02T13:00:42.870Z,57.31